createdAt,value
2017-07-12T00:00:22.921Z,60.60
2017-07-12T00:02:51.192Z,60.60
2017-07-12T00:05:19.830Z,62.40
2017-07-12T00:07:48.113Z,62.40
2017-07-12T00:10:16.362Z,61.90
2017-07-12T00:12:44.615Z,62.20
2017-07-12T00:15:12.885Z,62.60
2017-07-12T00:17:41.139Z,62.60
2017-07-12T00:20:09.390Z,61.90
2017-07-12T00:22:37.652Z,62.60
2017-07-12T00:25:05.913Z,62.80
2017-07-12T00:27:34.169Z,62.80
2017-07-12T00:30:02.446Z,63.30
2017-07-12T00:32:30.726Z,63.00
2017-07-12T00:34:58.965Z,62.10
2017-07-12T00:37:27.277Z,63.00
2017-07-12T00:39:55.525Z,61.20
2017-07-12T00:42:24.186Z,60.00
2017-07-12T00:44:52.780Z,61.00
2017-07-12T00:47:21.032Z,62.40
2017-07-12T00:49:49.293Z,60.40
2017-07-12T00:52:17.585Z,63.70
2017-07-12T00:54:46.093Z,63.30
2017-07-12T00:57:14.349Z,61.50
2017-07-12T00:59:42.616Z,60.60
2017-07-12T01:02:10.857Z,60.30
2017-07-12T01:04:39.105Z,63.00
2017-07-12T01:07:07.807Z,61.30
2017-07-12T01:09:36.054Z,61.30
2017-07-12T01:12:04.292Z,61.70
2017-07-12T01:14:32.572Z,61.50
2017-07-12T01:17:00.830Z,63.70
2017-07-12T01:19:29.103Z,64.60
2017-07-12T01:21:57.368Z,62.80
2017-07-12T01:24:25.714Z,62.40
2017-07-12T01:26:54.805Z,61.20
2017-07-12T01:29:23.058Z,60.40
2017-07-12T01:31:51.400Z,64.90
2017-07-12T01:34:19.668Z,62.40
2017-07-12T01:36:47.914Z,62.10
2017-07-12T01:39:16.623Z,64.60
2017-07-12T01:41:45.283Z,63.50
2017-07-12T01:44:13.542Z,63.50
2017-07-12T01:46:41.815Z,65.30
2017-07-12T01:49:10.089Z,64.00
2017-07-12T01:51:38.354Z,64.90
2017-07-12T01:54:06.633Z,64.20
2017-07-12T01:56:35.345Z,63.50
2017-07-12T01:59:03.692Z,63.50
2017-07-12T02:01:32.164Z,63.90
2017-07-12T02:04:00.415Z,64.90
2017-07-12T02:06:28.963Z,65.30
2017-07-12T02:08:57.209Z,64.20
2017-07-12T02:11:25.461Z,64.60
2017-07-12T02:13:53.742Z,65.10
2017-07-12T02:16:22.001Z,62.40
2017-07-12T02:18:50.266Z,65.50
2017-07-12T02:21:18.958Z,63.90
2017-07-12T02:23:47.204Z,63.90
2017-07-12T02:26:15.469Z,62.60
2017-07-12T02:28:43.739Z,62.10
2017-07-12T02:31:11.977Z,62.10
2017-07-12T02:33:40.229Z,62.10
2017-07-12T02:36:08.893Z,62.10
2017-07-12T02:38:37.574Z,62.10
2017-07-12T02:41:05.819Z,64.60
2017-07-12T02:43:34.114Z,64.60
2017-07-12T02:46:02.608Z,61.20
2017-07-12T02:48:30.870Z,62.10
2017-07-12T02:50:59.164Z,60.60
2017-07-12T02:53:27.748Z,62.60
2017-07-12T02:55:55.993Z,60.80
2017-07-12T02:58:24.294Z,60.10
2017-07-12T03:00:52.537Z,62.20
2017-07-12T03:03:20.779Z,59.20
2017-07-12T03:05:49.121Z,59.20
2017-07-12T03:08:17.363Z,59.40
2017-07-12T03:10:46.578Z,60.60
2017-07-12T03:13:14.852Z,61.90
2017-07-12T03:15:43.097Z,63.70
2017-07-12T03:18:11.353Z,68.00
2017-07-12T03:20:39.633Z,67.40
2017-07-12T03:23:07.880Z,65.30
2017-07-12T03:25:36.129Z,63.10
2017-07-12T03:28:04.417Z,61.00
2017-07-12T03:30:32.669Z,62.10
2017-07-12T03:33:00.913Z,59.80
2017-07-12T03:35:29.197Z,59.20
2017-07-12T03:37:57.436Z,60.80
2017-07-12T03:40:25.680Z,60.60
2017-07-12T03:42:53.960Z,61.50
2017-07-12T03:45:22.252Z,63.10
2017-07-12T03:47:50.492Z,63.10
2017-07-12T03:50:19.019Z,64.60
2017-07-12T03:52:47.266Z,65.10
2017-07-12T03:55:15.663Z,65.30
2017-07-12T03:57:44.571Z,64.00
2017-07-12T04:00:14.200Z,64.60
2017-07-12T04:02:42.459Z,66.00
2017-07-12T04:05:11.153Z,65.30
2017-07-12T04:07:39.434Z,65.30
2017-07-12T04:10:07.729Z,64.20
2017-07-12T04:12:36.020Z,64.90
2017-07-12T04:15:04.376Z,65.10
2017-07-12T04:17:32.646Z,66.20
2017-07-12T04:20:01.330Z,64.90
2017-07-12T04:22:29.562Z,64.60
2017-07-12T04:24:58.210Z,64.90
2017-07-12T04:27:26.506Z,64.90
2017-07-12T04:29:54.767Z,66.00
2017-07-12T04:32:23.014Z,65.30
2017-07-12T04:34:51.791Z,64.00
2017-07-12T04:37:20.424Z,65.50
2017-07-12T04:39:48.694Z,65.30
2017-07-12T04:42:16.977Z,66.90
2017-07-12T04:44:45.220Z,64.40
2017-07-12T04:47:13.466Z,62.60
2017-07-12T04:49:41.760Z,62.60
2017-07-12T04:52:10.325Z,63.30
2017-07-12T04:54:38.810Z,64.40
2017-07-12T04:57:07.082Z,65.70
2017-07-12T04:59:35.623Z,65.80
2017-07-12T05:02:03.877Z,64.60
2017-07-12T05:04:32.168Z,64.00
2017-07-12T05:07:00.421Z,64.60
2017-07-12T05:09:28.672Z,63.70
2017-07-12T05:11:56.982Z,64.20
2017-07-12T05:14:25.285Z,64.20
2017-07-12T05:16:54.088Z,64.20
2017-07-12T05:19:22.828Z,64.20
2017-07-12T05:21:51.162Z,64.90
2017-07-12T05:24:19.651Z,63.70
2017-07-12T05:26:48.345Z,63.70
2017-07-12T05:29:16.587Z,63.70
2017-07-12T05:31:44.848Z,62.40
2017-07-12T05:34:13.142Z,62.80
2017-07-12T05:36:41.401Z,60.60
2017-07-12T05:39:09.646Z,59.70
2017-07-12T05:41:37.948Z,60.80
2017-07-12T05:44:06.191Z,60.80
2017-07-12T05:46:34.851Z,58.20
2017-07-12T05:49:03.135Z,58.20
2017-07-12T05:51:32.022Z,58.80
2017-07-12T05:54:00.285Z,58.80
2017-07-12T05:56:28.576Z,58.20
2017-07-12T05:58:57.106Z,59.10
2017-07-12T06:01:25.755Z,59.10
2017-07-12T06:03:55.066Z,56.60
2017-07-12T06:06:24.258Z,56.60
2017-07-12T06:08:52.871Z,56.60
2017-07-12T06:11:21.214Z,55.20
2017-07-12T06:13:49.467Z,56.00
2017-07-12T06:16:17.786Z,56.70
2017-07-12T06:18:46.086Z,55.50
2017-07-12T06:21:14.356Z,55.40
2017-07-12T06:23:42.623Z,54.80
2017-07-12T06:26:10.933Z,55.50
2017-07-12T06:28:39.197Z,56.00
2017-07-12T06:31:07.465Z,56.00
2017-07-12T06:33:35.760Z,56.90
2017-07-12T06:36:04.016Z,57.30
2017-07-12T06:38:32.307Z,57.70
2017-07-12T06:41:00.590Z,57.40
2017-07-12T06:43:28.849Z,57.20
2017-07-12T06:45:57.110Z,57.20
2017-07-12T06:48:25.514Z,57.20
2017-07-12T06:50:53.794Z,57.60
2017-07-12T06:53:22.061Z,57.60
2017-07-12T06:55:50.361Z,56.70
2017-07-12T06:58:18.621Z,56.70
2017-07-12T07:00:46.880Z,56.10
2017-07-12T07:03:15.163Z,55.80
2017-07-12T07:05:43.445Z,56.00
2017-07-12T07:08:11.699Z,56.10
2017-07-12T07:10:40.016Z,55.10
2017-07-12T07:13:08.293Z,54.60
2017-07-12T07:15:36.548Z,54.30
2017-07-12T07:18:05.050Z,52.70
2017-07-12T07:20:33.283Z,52.70
2017-07-12T07:23:01.564Z,53.50
2017-07-12T07:25:29.847Z,59.40
2017-07-12T07:27:58.508Z,63.10
2017-07-12T07:30:27.454Z,64.60
2017-07-12T07:32:55.785Z,64.60
2017-07-12T07:35:24.813Z,68.30
2017-07-12T07:37:53.068Z,67.80
2017-07-12T07:40:21.402Z,67.30
2017-07-12T07:42:49.639Z,67.30
2017-07-12T07:45:17.885Z,67.10
2017-07-12T07:47:46.240Z,66.00
2017-07-12T07:50:15.811Z,60.10
2017-07-12T07:52:44.097Z,60.10
2017-07-12T07:55:12.383Z,56.10
2017-07-12T07:57:41.039Z,52.90
2017-07-12T08:00:09.329Z,52.90
2017-07-12T08:02:37.790Z,51.80
2017-07-12T08:05:06.074Z,50.40
2017-07-12T08:07:34.390Z,49.20
2017-07-12T08:10:02.682Z,47.40
2017-07-12T08:12:30.921Z,47.30
2017-07-12T08:14:59.170Z,47.50
2017-07-12T08:17:27.468Z,46.70
2017-07-12T08:19:55.753Z,47.00
2017-07-12T08:22:25.007Z,47.50
2017-07-12T08:24:53.284Z,56.10
2017-07-12T08:27:21.602Z,57.30
2017-07-12T08:29:49.854Z,57.90
2017-07-12T08:32:18.167Z,57.70
2017-07-12T08:34:46.522Z,56.70
2017-07-12T08:37:14.743Z,55.10
2017-07-12T08:39:43.028Z,55.10
2017-07-12T08:42:11.302Z,52.90
2017-07-12T08:44:39.556Z,53.00
2017-07-12T08:47:07.842Z,53.80
2017-07-12T08:49:36.175Z,52.60
2017-07-12T08:52:04.403Z,54.80
2017-07-12T08:54:32.693Z,54.80
2017-07-12T08:57:00.930Z,56.40
2017-07-12T08:59:30.003Z,55.10
2017-07-12T09:01:58.440Z,54.20
2017-07-12T09:04:26.689Z,55.50
2017-07-12T09:06:54.927Z,55.50
2017-07-12T09:09:23.296Z,56.60
2017-07-12T09:11:51.529Z,56.90
2017-07-12T09:14:19.770Z,55.70
2017-07-12T09:16:48.050Z,55.20
2017-07-12T09:19:16.297Z,54.20
2017-07-12T09:21:44.693Z,52.10
2017-07-12T09:24:13.030Z,50.80
2017-07-12T09:34:06.471Z,48.90
2017-07-12T09:36:34.725Z,47.80
2017-07-12T09:39:03.008Z,46.40
2017-07-12T09:41:31.255Z,46.70
2017-07-12T09:43:59.496Z,47.30
2017-07-12T09:46:27.769Z,46.80
2017-07-12T09:48:56.034Z,47.00
2017-07-12T09:51:24.312Z,47.80
2017-07-12T09:53:52.587Z,50.10
2017-07-12T09:56:21.002Z,50.80
2017-07-12T09:58:50.005Z,52.90
2017-07-12T10:01:18.284Z,53.60
2017-07-12T10:03:46.559Z,52.90
2017-07-12T10:06:14.802Z,53.00
2017-07-12T10:08:43.090Z,53.00
2017-07-12T10:11:11.738Z,52.10
2017-07-12T10:13:40.217Z,52.10
2017-07-12T10:16:08.497Z,52.40
2017-07-12T10:18:37.173Z,51.80
2017-07-12T10:21:05.680Z,50.80
2017-07-12T10:23:34.000Z,50.90
2017-07-12T10:26:02.255Z,50.40
2017-07-12T10:28:30.896Z,51.10
2017-07-12T10:30:59.197Z,51.10
2017-07-12T10:33:27.434Z,51.50
2017-07-12T10:35:56.588Z,52.70
2017-07-12T10:38:24.907Z,53.00
2017-07-12T10:40:53.166Z,54.20
2017-07-12T10:43:21.536Z,53.80
2017-07-12T10:45:49.805Z,53.30
2017-07-12T10:48:18.070Z,53.50
2017-07-12T10:50:46.976Z,53.90
2017-07-12T10:53:15.282Z,53.90
2017-07-12T10:55:43.520Z,54.50
2017-07-12T10:58:12.165Z,56.00
2017-07-12T11:00:40.437Z,56.00
2017-07-12T11:03:08.674Z,56.10
2017-07-12T11:05:36.906Z,56.60
2017-07-12T11:08:05.241Z,57.60
2017-07-12T11:10:33.471Z,57.60
2017-07-12T11:13:02.120Z,57.00
2017-07-12T11:15:30.392Z,57.00
2017-07-12T11:17:58.658Z,56.00
2017-07-12T11:20:26.896Z,56.30
2017-07-12T11:22:55.213Z,57.20
2017-07-12T11:25:23.452Z,57.20
2017-07-12T11:27:51.695Z,57.40
2017-07-12T11:30:20.004Z,57.70
2017-07-12T11:32:48.248Z,58.50
2017-07-12T11:35:16.929Z,58.20
2017-07-12T11:37:45.211Z,58.20
2017-07-12T11:40:13.453Z,58.90
2017-07-12T11:42:42.269Z,58.80
2017-07-12T11:45:10.531Z,58.90
2017-07-12T11:47:38.763Z,62.10
2017-07-12T11:50:06.997Z,61.00
2017-07-12T11:52:35.284Z,60.30
2017-07-12T11:55:03.541Z,59.70
2017-07-12T11:57:31.780Z,60.10
2017-07-12T12:00:00.096Z,59.50
2017-07-12T12:02:28.342Z,59.70
2017-07-12T12:04:56.595Z,59.70
2017-07-12T12:07:24.867Z,60.60
2017-07-12T12:09:54.981Z,60.60
2017-07-12T12:12:23.262Z,61.90
2017-07-12T12:14:51.596Z,64.60
2017-07-12T12:17:19.872Z,63.70
2017-07-12T12:19:48.137Z,63.90
2017-07-12T12:22:16.530Z,63.10
2017-07-12T12:24:44.851Z,62.60
2017-07-12T12:27:14.046Z,63.00
2017-07-12T12:29:42.353Z,63.70
2017-07-12T12:32:12.062Z,63.50
2017-07-12T12:34:40.981Z,62.10
2017-07-12T12:37:09.274Z,61.70
2017-07-12T12:39:37.538Z,61.00
2017-07-12T12:42:07.574Z,61.30
2017-07-12T12:44:36.536Z,60.80
2017-07-12T12:47:04.913Z,61.00
2017-07-12T12:49:33.089Z,61.70
2017-07-12T12:52:01.358Z,63.10
2017-07-12T12:54:29.604Z,64.00
2017-07-12T12:56:58.064Z,64.90
2017-07-12T12:59:27.596Z,65.50
2017-07-12T13:01:55.889Z,64.60
2017-07-12T13:04:30.947Z,64.80
2017-07-12T13:06:59.195Z,65.10
2017-07-12T13:09:27.425Z,65.50
2017-07-12T13:11:56.641Z,65.70
2017-07-12T13:14:25.655Z,64.80
2017-07-12T13:16:54.293Z,64.40
2017-07-12T13:19:22.605Z,66.60
2017-07-12T13:21:50.858Z,66.40
2017-07-12T13:24:19.882Z,67.40
2017-07-12T13:26:48.196Z,68.50
2017-07-12T13:29:16.441Z,68.90
2017-07-12T13:31:45.170Z,68.90
2017-07-12T13:34:13.978Z,68.90
2017-07-12T13:36:42.628Z,68.70
2017-07-12T13:39:10.882Z,68.70
2017-07-12T13:41:40.205Z,68.00
2017-07-12T13:44:09.407Z,67.40
2017-07-12T13:46:38.020Z,68.70
2017-07-12T13:49:06.272Z,69.10
2017-07-12T13:51:35.334Z,67.80
2017-07-12T13:54:03.613Z,67.80
2017-07-12T13:56:32.775Z,67.60
2017-07-12T13:59:01.032Z,68.00
2017-07-12T14:01:29.660Z,67.30
2017-07-12T14:03:58.410Z,67.30
2017-07-12T14:06:27.645Z,68.30
2017-07-12T14:08:56.678Z,68.30
2017-07-12T14:11:26.723Z,67.60
2017-07-12T14:13:55.999Z,68.90
2017-07-12T14:16:24.269Z,68.90
2017-07-12T14:18:52.616Z,69.20
2017-07-12T14:21:20.936Z,68.30
2017-07-12T14:23:49.563Z,70.30
2017-07-12T14:26:17.840Z,70.50
2017-07-12T14:28:46.087Z,73.40
2017-07-12T14:31:14.349Z,73.70
2017-07-12T14:33:42.621Z,73.40
2017-07-12T14:36:11.272Z,73.90
2017-07-12T14:38:39.586Z,74.10
2017-07-12T14:41:08.343Z,75.70
2017-07-12T14:43:36.640Z,75.70
2017-07-12T14:46:04.865Z,74.80
2017-07-12T14:48:33.794Z,74.80
2017-07-12T14:51:02.122Z,75.90
2017-07-12T14:53:30.408Z,75.90
2017-07-12T14:55:58.670Z,74.80
2017-07-12T14:58:26.991Z,74.30
2017-07-12T15:00:55.277Z,73.60
2017-07-12T15:03:23.600Z,73.70
2017-07-12T15:05:51.845Z,72.30
2017-07-12T15:08:20.517Z,72.70
2017-07-12T15:10:48.813Z,72.70
2017-07-12T15:13:17.053Z,73.20
2017-07-12T15:15:45.355Z,73.20
2017-07-12T15:18:14.155Z,74.10
2017-07-12T15:20:42.816Z,73.90
2017-07-12T15:23:11.075Z,73.90
2017-07-12T15:25:39.379Z,73.70
2017-07-12T15:28:08.570Z,73.70
2017-07-12T15:30:36.869Z,74.60
2017-07-12T15:33:05.586Z,76.10
2017-07-12T15:35:33.829Z,76.10
2017-07-12T15:38:02.082Z,76.30
2017-07-12T15:40:30.373Z,77.50
2017-07-12T15:42:58.621Z,77.50
2017-07-12T15:45:26.917Z,77.30
2017-07-12T15:47:55.570Z,77.50
2017-07-12T15:50:23.803Z,76.60
2017-07-12T15:52:53.031Z,77.30
2017-07-12T15:55:21.343Z,76.60
2017-07-12T15:57:49.624Z,75.90
2017-07-12T16:00:17.895Z,75.00
2017-07-12T16:02:46.401Z,73.90
2017-07-12T16:05:14.808Z,73.00
2017-07-12T16:07:43.136Z,72.30
2017-07-12T16:10:11.412Z,71.90
2017-07-12T16:12:39.674Z,71.20
2017-07-12T16:15:07.933Z,72.10
2017-07-12T16:17:36.188Z,72.50
2017-07-12T16:20:04.461Z,72.80
2017-07-12T16:22:32.779Z,74.30
2017-07-12T16:25:01.072Z,74.50
2017-07-12T16:27:29.340Z,75.00
2017-07-12T16:29:57.675Z,74.30
2017-07-12T16:32:26.628Z,75.70
2017-07-12T16:34:55.317Z,75.90
2017-07-12T16:37:27.230Z,75.40
2017-07-12T16:39:55.642Z,75.40
2017-07-12T16:42:23.931Z,74.80
2017-07-12T16:44:52.334Z,74.80
2017-07-12T16:47:21.080Z,74.60
2017-07-12T16:49:49.558Z,73.00
2017-07-12T16:52:17.825Z,71.80
2017-07-12T16:54:46.062Z,71.40
2017-07-12T16:57:14.310Z,70.90
2017-07-12T16:59:42.634Z,69.80
2017-07-12T17:02:10.882Z,70.70
2017-07-12T17:04:39.157Z,69.40
2017-07-12T17:07:07.598Z,68.20
2017-07-12T17:09:35.896Z,66.70
2017-07-12T17:12:04.335Z,66.60
2017-07-12T17:14:32.695Z,65.80
2017-07-12T17:17:00.961Z,65.70
2017-07-12T17:19:29.394Z,64.90
2017-07-12T17:21:57.920Z,64.40
2017-07-12T17:24:26.180Z,63.00
2017-07-12T17:26:54.425Z,62.80
2017-07-12T17:29:22.801Z,62.20
2017-07-12T17:31:51.063Z,62.40
2017-07-12T17:34:19.358Z,62.10
2017-07-12T17:36:47.664Z,62.10
2017-07-12T17:39:16.021Z,62.20
2017-07-12T17:41:44.374Z,62.20
2017-07-12T17:44:13.329Z,62.20
2017-07-12T17:46:41.632Z,62.10
2017-07-12T17:49:09.884Z,62.10
2017-07-12T17:51:39.643Z,62.20
2017-07-12T17:54:09.129Z,63.00
2017-07-12T17:56:52.951Z,63.10
2017-07-12T17:59:22.460Z,63.70
2017-07-12T18:01:51.115Z,64.60
2017-07-12T18:04:19.372Z,64.40
2017-07-12T18:06:48.018Z,65.50
2017-07-12T18:09:16.272Z,65.50
2017-07-12T18:11:44.934Z,62.60
2017-07-12T18:14:13.325Z,61.30
2017-07-12T18:16:41.593Z,60.60
2017-07-12T18:19:09.844Z,61.00
2017-07-12T18:21:38.441Z,61.20
2017-07-12T18:24:06.845Z,61.50
2017-07-12T18:26:35.409Z,61.50
2017-07-12T18:29:04.036Z,61.90
2017-07-12T18:31:32.332Z,61.90
2017-07-12T18:34:00.714Z,61.30
2017-07-12T18:36:28.970Z,61.50
2017-07-12T18:38:57.350Z,61.50
2017-07-12T18:41:25.487Z,63.00
2017-07-12T18:43:53.748Z,62.20
2017-07-12T18:46:22.121Z,63.70
2017-07-12T18:48:50.357Z,63.70
2017-07-12T18:51:18.856Z,62.40
2017-07-12T18:53:47.758Z,63.10
2017-07-12T18:56:16.121Z,62.60
2017-07-12T18:58:44.621Z,63.70
2017-07-12T19:01:13.306Z,63.70
2017-07-12T19:03:41.955Z,64.20
2017-07-12T19:06:10.199Z,64.20
2017-07-12T19:08:38.547Z,64.90
2017-07-12T19:11:07.196Z,64.20
2017-07-12T19:13:35.434Z,64.20
2017-07-12T19:16:03.711Z,64.00
2017-07-12T19:18:31.962Z,65.10
2017-07-12T19:21:00.308Z,65.70
2017-07-12T19:23:28.569Z,66.00
2017-07-12T19:25:56.808Z,66.60
2017-07-12T19:28:25.090Z,67.10
2017-07-12T19:30:53.374Z,68.20
2017-07-12T19:33:21.625Z,68.00
2017-07-12T19:35:49.878Z,66.90
2017-07-12T19:38:18.161Z,66.90
2017-07-12T19:40:46.789Z,67.30
2017-07-12T19:43:15.104Z,67.30
2017-07-12T19:45:43.373Z,68.00
2017-07-12T19:48:11.616Z,66.90
2017-07-12T19:50:39.885Z,66.40
2017-07-12T19:53:08.173Z,67.80
2017-07-12T19:55:36.417Z,69.10
2017-07-12T19:58:04.669Z,68.70
2017-07-12T20:00:32.958Z,69.20
2017-07-12T20:03:01.597Z,69.60
2017-07-12T20:05:29.842Z,69.60
2017-07-12T20:07:58.119Z,70.00
2017-07-12T20:10:26.361Z,71.60
2017-07-12T20:12:55.022Z,71.40
2017-07-12T20:15:23.297Z,71.40
2017-07-12T20:17:51.539Z,71.90
2017-07-12T20:20:19.765Z,72.50
2017-07-12T20:22:48.287Z,71.60
2017-07-12T20:25:16.520Z,72.10
2017-07-12T20:27:44.797Z,71.20
2017-07-12T20:30:13.358Z,70.30
2017-07-12T20:32:41.605Z,70.00
2017-07-12T20:35:09.891Z,70.50
2017-07-12T20:37:38.176Z,70.30
2017-07-12T20:40:06.555Z,70.90
2017-07-12T20:42:34.880Z,70.50
2017-07-12T20:45:03.616Z,71.20
2017-07-12T20:47:31.868Z,71.20
2017-07-12T20:50:00.205Z,71.20
2017-07-12T20:52:28.797Z,72.80
2017-07-12T20:54:57.424Z,73.40
2017-07-12T20:57:26.117Z,73.40
2017-07-12T20:59:54.398Z,73.40
2017-07-12T21:02:22.900Z,71.90
2017-07-12T21:04:51.152Z,72.10
2017-07-12T21:07:19.432Z,68.70
2017-07-12T21:09:47.681Z,70.10
2017-07-12T21:12:16.103Z,66.60
2017-07-12T21:14:45.177Z,67.10
2017-07-12T21:17:13.421Z,68.20
2017-07-12T21:19:41.655Z,69.10
2017-07-12T21:22:09.924Z,70.00
2017-07-12T21:24:38.189Z,71.60
2017-07-12T21:27:06.818Z,69.80
2017-07-12T21:29:35.236Z,68.70
2017-07-12T21:32:03.476Z,68.70
2017-07-12T21:34:32.540Z,69.20
2017-07-12T21:37:00.833Z,69.10
2017-07-12T21:39:29.080Z,67.40
2017-07-12T21:41:57.608Z,69.80
2017-07-12T21:44:25.895Z,67.10
2017-07-12T21:46:54.128Z,69.10
2017-07-12T21:49:22.369Z,69.10
2017-07-12T21:51:50.880Z,71.40
2017-07-12T21:54:36.713Z,68.50
2017-07-12T21:57:22.686Z,68.90
2017-07-12T22:00:08.636Z,63.10
2017-07-12T22:02:54.586Z,64.90
2017-07-12T22:05:40.433Z,65.80
2017-07-12T22:08:26.254Z,65.30
2017-07-12T22:11:12.181Z,65.30
2017-07-12T22:13:58.058Z,68.20
2017-07-12T22:16:43.904Z,65.70
2017-07-12T22:19:30.330Z,63.30
2017-07-12T22:22:16.524Z,63.30
2017-07-12T22:25:02.636Z,66.40
2017-07-12T22:27:48.561Z,67.80
2017-07-12T22:30:34.533Z,65.10
2017-07-12T22:33:21.862Z,63.70
2017-07-12T22:36:07.885Z,64.00
2017-07-12T22:38:41.796Z,63.70
2017-07-12T22:41:15.685Z,62.20
2017-07-12T22:43:43.443Z,64.00
2017-07-12T22:46:11.721Z,63.00
2017-07-12T22:48:40.099Z,63.00
2017-07-12T22:51:08.475Z,63.00
2017-07-12T22:53:36.728Z,63.50
2017-07-12T22:56:05.016Z,65.80
2017-07-12T22:58:33.408Z,65.50
2017-07-12T23:01:01.647Z,63.70
2017-07-12T23:03:29.940Z,65.10
2017-07-12T23:05:58.181Z,64.40
2017-07-12T23:08:26.441Z,63.10
2017-07-12T23:10:54.729Z,64.00
2017-07-12T23:13:22.973Z,62.60
2017-07-12T23:15:51.231Z,63.50
2017-07-12T23:18:19.496Z,63.90
2017-07-12T23:20:47.727Z,62.80
2017-07-12T23:23:15.959Z,62.40
2017-07-12T23:25:44.237Z,63.50
2017-07-12T23:28:12.724Z,63.00
2017-07-12T23:30:41.188Z,64.80
2017-07-12T23:33:09.460Z,65.30
2017-07-12T23:35:37.691Z,62.60
2017-07-12T23:38:05.939Z,64.40
2017-07-12T23:40:34.222Z,63.50
2017-07-12T23:43:02.689Z,61.50
2017-07-12T23:45:30.932Z,62.40
2017-07-12T23:47:59.227Z,63.10
2017-07-12T23:50:27.464Z,61.90
2017-07-12T23:52:55.713Z,61.30
2017-07-12T23:55:24.530Z,62.60
2017-07-12T23:57:52.779Z,62.60
